sensor_id;sensor_type;location;lat;lon;timestamp;temperature;humidity
68274;SHT30;55104;47.356;19.448;2023-03-23T00:01:03;6.36;80.93
68274;SHT30;55104;47.356;19.448;2023-03-23T00:04:04;6.30;81.52
68274;SHT30;55104;47.356;19.448;2023-03-23T00:07:06;6.32;81.53
68274;SHT30;55104;47.356;19.448;2023-03-23T00:10:07;6.26;81.37
68274;SHT30;55104;47.356;19.448;2023-03-23T00:13:08;6.21;81.48
68274;SHT30;55104;47.356;19.448;2023-03-23T00:16:10;6.16;81.90
68274;SHT30;55104;47.356;19.448;2023-03-23T00:19:18;6.14;81.96
68274;SHT30;55104;47.356;19.448;2023-03-23T00:22:20;6.14;82.19
68274;SHT30;55104;47.356;19.448;2023-03-23T00:25:21;6.09;82.28
68274;SHT30;55104;47.356;19.448;2023-03-23T00:28:24;6.01;82.35
68274;SHT30;55104;47.356;19.448;2023-03-23T00:31:25;5.98;82.40
68274;SHT30;55104;47.356;19.448;2023-03-23T00:34:33;6.02;82.68
68274;SHT30;55104;47.356;19.448;2023-03-23T00:37:35;6.02;82.63
68274;SHT30;55104;47.356;19.448;2023-03-23T00:40:36;5.97;82.44
68274;SHT30;55104;47.356;19.448;2023-03-23T00:43:37;5.95;82.53
68274;SHT30;55104;47.356;19.448;2023-03-23T00:46:39;5.98;82.55
68274;SHT30;55104;47.356;19.448;2023-03-23T00:49:45;5.95;82.59
68274;SHT30;55104;47.356;19.448;2023-03-23T00:52:46;5.94;82.54
68274;SHT30;55104;47.356;19.448;2023-03-23T00:55:48;5.97;82.58
68274;SHT30;55104;47.356;19.448;2023-03-23T00:58:49;5.93;82.68
68274;SHT30;55104;47.356;19.448;2023-03-23T01:01:51;5.90;82.80
68274;SHT30;55104;47.356;19.448;2023-03-23T01:04:52;5.90;82.74
68274;SHT30;55104;47.356;19.448;2023-03-23T01:07:53;5.87;82.65
68274;SHT30;55104;47.356;19.448;2023-03-23T01:11:02;5.81;83.02
68274;SHT30;55104;47.356;19.448;2023-03-23T01:14:04;5.78;83.06
68274;SHT30;55104;47.356;19.448;2023-03-23T01:17:05;5.77;83.42
68274;SHT30;55104;47.356;19.448;2023-03-23T01:20:10;5.73;83.60
68274;SHT30;55104;47.356;19.448;2023-03-23T01:23:12;5.70;83.46
68274;SHT30;55104;47.356;19.448;2023-03-23T01:26:15;5.66;83.56
68274;SHT30;55104;47.356;19.448;2023-03-23T01:29:17;5.57;83.96
68274;SHT30;55104;47.356;19.448;2023-03-23T01:32:18;5.54;84.02
68274;SHT30;55104;47.356;19.448;2023-03-23T01:35:19;5.53;84.34
68274;SHT30;55104;47.356;19.448;2023-03-23T01:38:20;5.44;84.38
68274;SHT30;55104;47.356;19.448;2023-03-23T01:41:23;5.47;84.37
68274;SHT30;55104;47.356;19.448;2023-03-23T01:47:31;5.46;84.24
68274;SHT30;55104;47.356;19.448;2023-03-23T01:50:56;5.40;84.13
68274;SHT30;55104;47.356;19.448;2023-03-23T01:54:01;5.39;84.60
68274;SHT30;55104;47.356;19.448;2023-03-23T01:57:07;5.35;84.64
68274;SHT30;55104;47.356;19.448;2023-03-23T02:00:12;5.33;84.76
68274;SHT30;55104;47.356;19.448;2023-03-23T02:03:15;5.33;84.66
68274;SHT30;55104;47.356;19.448;2023-03-23T02:06:18;5.33;84.66
68274;SHT30;55104;47.356;19.448;2023-03-23T02:09:40;5.25;84.63
68274;SHT30;55104;47.356;19.448;2023-03-23T02:12:40;5.28;84.82
68274;SHT30;55104;47.356;19.448;2023-03-23T02:27:07;5.21;84.91
68274;SHT30;55104;47.356;19.448;2023-03-23T02:30:11;5.23;84.57
68274;SHT30;55104;47.356;19.448;2023-03-23T02:36:39;5.26;84.55
68274;SHT30;55104;47.356;19.448;2023-03-23T02:39:50;5.21;84.34
68274;SHT30;55104;47.356;19.448;2023-03-23T02:42:54;5.19;84.36
68274;SHT30;55104;47.356;19.448;2023-03-23T02:45:58;5.21;84.62
68274;SHT30;55104;47.356;19.448;2023-03-23T02:49:02;5.19;84.31
68274;SHT30;55104;47.356;19.448;2023-03-23T02:52:09;5.15;84.36
68274;SHT30;55104;47.356;19.448;2023-03-23T02:55:13;5.09;84.84
68274;SHT30;55104;47.356;19.448;2023-03-23T02:58:15;5.09;84.87
68274;SHT30;55104;47.356;19.448;2023-03-23T03:04:34;5.05;84.42
68274;SHT30;55104;47.356;19.448;2023-03-23T03:11:11;5.04;84.75
68274;SHT30;55104;47.356;19.448;2023-03-23T03:14:20;4.97;84.75
68274;SHT30;55104;47.356;19.448;2023-03-23T03:17:26;4.94;84.79
68274;SHT30;55104;47.356;19.448;2023-03-23T03:20:28;4.91;84.79
68274;SHT30;55104;47.356;19.448;2023-03-23T03:23:31;4.91;85.09
68274;SHT30;55104;47.356;19.448;2023-03-23T03:26:34;4.97;84.82
68274;SHT30;55104;47.356;19.448;2023-03-23T03:29:56;4.99;84.63
68274;SHT30;55104;47.356;19.448;2023-03-23T03:32:59;5.01;84.59
68274;SHT30;55104;47.356;19.448;2023-03-23T03:36:03;5.01;84.62
68274;SHT30;55104;47.356;19.448;2023-03-23T03:39:09;4.95;84.66
68274;SHT30;55104;47.356;19.448;2023-03-23T03:42:11;4.97;84.50
68274;SHT30;55104;47.356;19.448;2023-03-23T03:45:16;4.97;84.66
68274;SHT30;55104;47.356;19.448;2023-03-23T03:48:17;4.98;84.47
68274;SHT30;55104;47.356;19.448;2023-03-23T03:51:18;4.98;84.57
68274;SHT30;55104;47.356;19.448;2023-03-23T03:54:23;4.89;84.73
68274;SHT30;55104;47.356;19.448;2023-03-23T03:57:25;4.89;84.90
68274;SHT30;55104;47.356;19.448;2023-03-23T04:00:32;4.85;84.88
68274;SHT30;55104;47.356;19.448;2023-03-23T04:03:33;4.87;84.96
68274;SHT30;55104;47.356;19.448;2023-03-23T04:06:46;4.87;85.16
68274;SHT30;55104;47.356;19.448;2023-03-23T04:09:50;4.85;84.91
68274;SHT30;55104;47.356;19.448;2023-03-23T04:12:54;4.87;84.73
68274;SHT30;55104;47.356;19.448;2023-03-23T04:16:14;4.80;84.95
68274;SHT30;55104;47.356;19.448;2023-03-23T04:19:18;4.76;85.08
68274;SHT30;55104;47.356;19.448;2023-03-23T04:22:19;4.76;85.45
68274;SHT30;55104;47.356;19.448;2023-03-23T04:25:21;4.84;85.02
68274;SHT30;55104;47.356;19.448;2023-03-23T04:28:24;4.80;85.12
68274;SHT30;55104;47.356;19.448;2023-03-23T04:31:45;4.84;84.91
68274;SHT30;55104;47.356;19.448;2023-03-23T04:34:58;4.84;84.85
68274;SHT30;55104;47.356;19.448;2023-03-23T04:38:05;4.85;85.17
68274;SHT30;55104;47.356;19.448;2023-03-23T04:41:06;4.85;84.81
68274;SHT30;55104;47.356;19.448;2023-03-23T04:44:20;4.83;85.09
68274;SHT30;55104;47.356;19.448;2023-03-23T04:47:36;4.84;85.10
68274;SHT30;55104;47.356;19.448;2023-03-23T04:50:48;4.88;85.24
68274;SHT30;55104;47.356;19.448;2023-03-23T04:53:57;5.05;84.89
68274;SHT30;55104;47.356;19.448;2023-03-23T04:56:58;5.07;84.61
68274;SHT30;55104;47.356;19.448;2023-03-23T05:00:02;5.12;84.60
68274;SHT30;55104;47.356;19.448;2023-03-23T05:03:17;5.08;84.67
68274;SHT30;55104;47.356;19.448;2023-03-23T05:06:19;5.15;84.43
68274;SHT30;55104;47.356;19.448;2023-03-23T05:09:21;5.16;84.86
68274;SHT30;55104;47.356;19.448;2023-03-23T05:12:23;5.21;84.59
68274;SHT30;55104;47.356;19.448;2023-03-23T05:15:34;5.25;84.91
68274;SHT30;55104;47.356;19.448;2023-03-23T05:18:37;5.31;84.86
68274;SHT30;55104;47.356;19.448;2023-03-23T05:21:41;5.40;84.82
68274;SHT30;55104;47.356;19.448;2023-03-23T05:24:43;5.52;84.78
68274;SHT30;55104;47.356;19.448;2023-03-23T05:27:45;5.70;84.33
68274;SHT30;55104;47.356;19.448;2023-03-23T05:31:09;5.80;84.15
68274;SHT30;55104;47.356;19.448;2023-03-23T05:34:11;5.88;84.01
68274;SHT30;55104;47.356;19.448;2023-03-23T05:37:26;5.99;84.01
68274;SHT30;55104;47.356;19.448;2023-03-23T05:40:33;6.15;83.81
68274;SHT30;55104;47.356;19.448;2023-03-23T05:43:42;6.30;83.72
68274;SHT30;55104;47.356;19.448;2023-03-23T05:47:12;6.46;83.14
68274;SHT30;55104;47.356;19.448;2023-03-23T05:50:16;6.83;82.43
68274;SHT30;55104;47.356;19.448;2023-03-23T05:53:18;6.94;81.84
68274;SHT30;55104;47.356;19.448;2023-03-23T05:56:25;7.09;81.23
68274;SHT30;55104;47.356;19.448;2023-03-23T05:59:43;7.20;80.94
68274;SHT30;55104;47.356;19.448;2023-03-23T06:02:54;7.49;80.38
68274;SHT30;55104;47.356;19.448;2023-03-23T06:06:04;7.59;79.90
68274;SHT30;55104;47.356;19.448;2023-03-23T06:09:12;7.70;79.39
68274;SHT30;55104;47.356;19.448;2023-03-23T06:12:33;8.05;77.75
68274;SHT30;55104;47.356;19.448;2023-03-23T06:15:47;8.25;77.05
68274;SHT30;55104;47.356;19.448;2023-03-23T06:19:08;8.40;76.90
68274;SHT30;55104;47.356;19.448;2023-03-23T06:22:12;8.54;76.33
68274;SHT30;55104;47.356;19.448;2023-03-23T06:25:42;8.84;75.76
68274;SHT30;55104;47.356;19.448;2023-03-23T06:28:45;9.07;75.22
68274;SHT30;55104;47.356;19.448;2023-03-23T06:31:48;9.15;75.65
68274;SHT30;55104;47.356;19.448;2023-03-23T06:34:51;9.40;74.71
68274;SHT30;55104;47.356;19.448;2023-03-23T06:38:11;9.67;73.24
68274;SHT30;55104;47.356;19.448;2023-03-23T06:41:20;9.85;72.40
68274;SHT30;55104;47.356;19.448;2023-03-23T06:44:22;10.08;72.56
68274;SHT30;55104;47.356;19.448;2023-03-23T06:47:24;10.22;71.61
68274;SHT30;55104;47.356;19.448;2023-03-23T06:50:25;10.40;71.33
68274;SHT30;55104;47.356;19.448;2023-03-23T06:53:28;10.49;71.66
68274;SHT30;55104;47.356;19.448;2023-03-23T06:56:31;10.71;71.13
68274;SHT30;55104;47.356;19.448;2023-03-23T06:59:32;10.97;70.80
68274;SHT30;55104;47.356;19.448;2023-03-23T07:02:35;11.22;69.24
68274;SHT30;55104;47.356;19.448;2023-03-23T07:05:37;11.46;69.13
68274;SHT30;55104;47.356;19.448;2023-03-23T07:08:40;11.70;68.64
68274;SHT30;55104;47.356;19.448;2023-03-23T07:11:46;11.87;67.86
68274;SHT30;55104;47.356;19.448;2023-03-23T07:14:58;12.24;66.84
68274;SHT30;55104;47.356;19.448;2023-03-23T07:17:59;12.41;66.17
68274;SHT30;55104;47.356;19.448;2023-03-23T07:21:09;12.64;65.98
68274;SHT30;55104;47.356;19.448;2023-03-23T07:24:12;12.88;64.93
68274;SHT30;55104;47.356;19.448;2023-03-23T07:27:49;13.11;64.22
68274;SHT30;55104;47.356;19.448;2023-03-23T07:30:51;13.34;63.27
68274;SHT30;55104;47.356;19.448;2023-03-23T07:33:53;13.55;63.28
68274;SHT30;55104;47.356;19.448;2023-03-23T07:36:56;13.77;62.94
68274;SHT30;55104;47.356;19.448;2023-03-23T07:39:59;13.93;62.70
68274;SHT30;55104;47.356;19.448;2023-03-23T07:43:03;14.22;61.72
68274;SHT30;55104;47.356;19.448;2023-03-23T07:46:21;14.58;59.84
68274;SHT30;55104;47.356;19.448;2023-03-23T07:49:45;14.77;59.22
68274;SHT30;55104;47.356;19.448;2023-03-23T07:53:07;14.86;58.57
68274;SHT30;55104;47.356;19.448;2023-03-23T07:56:11;14.94;58.22
68274;SHT30;55104;47.356;19.448;2023-03-23T07:59:27;15.00;58.93
68274;SHT30;55104;47.356;19.448;2023-03-23T08:02:31;15.06;58.07
68274;SHT30;55104;47.356;19.448;2023-03-23T08:05:51;15.18;57.54
68274;SHT30;55104;47.356;19.448;2023-03-23T08:09:02;15.34;57.83
68274;SHT30;55104;47.356;19.448;2023-03-23T08:12:36;15.51;56.41
68274;SHT30;55104;47.356;19.448;2023-03-23T08:15:43;15.56;55.86
68274;SHT30;55104;47.356;19.448;2023-03-23T08:18:45;15.69;55.36
68274;SHT30;55104;47.356;19.448;2023-03-23T08:21:47;15.89;55.61
68274;SHT30;55104;47.356;19.448;2023-03-23T08:25:09;16.04;54.86
68274;SHT30;55104;47.356;19.448;2023-03-23T08:28:40;16.27;53.07
68274;SHT30;55104;47.356;19.448;2023-03-23T08:32:01;16.51;52.98
68274;SHT30;55104;47.356;19.448;2023-03-23T08:35:33;16.86;52.82
68274;SHT30;55104;47.356;19.448;2023-03-23T08:39:03;17.20;50.27
68274;SHT30;55104;47.356;19.448;2023-03-23T08:42:24;17.41;50.02
68274;SHT30;55104;47.356;19.448;2023-03-23T08:45:32;17.59;49.90
68274;SHT30;55104;47.356;19.448;2023-03-23T08:48:33;17.78;47.84
68274;SHT30;55104;47.356;19.448;2023-03-23T08:51:54;17.85;48.03
68274;SHT30;55104;47.356;19.448;2023-03-23T08:55:11;17.96;47.45
68274;SHT30;55104;47.356;19.448;2023-03-23T08:58:51;18.20;47.83
68274;SHT30;55104;47.356;19.448;2023-03-23T09:02:10;18.28;47.14
68274;SHT30;55104;47.356;19.448;2023-03-23T09:05:20;18.43;46.60
68274;SHT30;55104;47.356;19.448;2023-03-23T09:08:48;18.65;47.30
68274;SHT30;55104;47.356;19.448;2023-03-23T09:11:50;18.86;45.51
68274;SHT30;55104;47.356;19.448;2023-03-23T09:14:51;19.06;45.64
68274;SHT30;55104;47.356;19.448;2023-03-23T09:17:52;19.09;45.40
68274;SHT30;55104;47.356;19.448;2023-03-23T09:20:54;19.32;44.01
68274;SHT30;55104;47.356;19.448;2023-03-23T09:23:56;19.32;44.18
68274;SHT30;55104;47.356;19.448;2023-03-23T09:27:03;19.19;44.40
68274;SHT30;55104;47.356;19.448;2023-03-23T09:30:07;19.24;43.07
68274;SHT30;55104;47.356;19.448;2023-03-23T09:33:08;19.09;44.20
68274;SHT30;55104;47.356;19.448;2023-03-23T09:36:10;19.35;43.76
68274;SHT30;55104;47.356;19.448;2023-03-23T09:39:15;19.50;43.92
68274;SHT30;55104;47.356;19.448;2023-03-23T09:42:35;19.86;43.25
68274;SHT30;55104;47.356;19.448;2023-03-23T09:49:09;20.21;43.53
68274;SHT30;55104;47.356;19.448;2023-03-23T09:52:15;20.41;41.88
68274;SHT30;55104;47.356;19.448;2023-03-23T09:55:18;20.27;40.57
68274;SHT30;55104;47.356;19.448;2023-03-23T09:58:30;20.24;41.90
68274;SHT30;55104;47.356;19.448;2023-03-23T10:01:40;19.97;40.30
68274;SHT30;55104;47.356;19.448;2023-03-23T10:04:44;19.59;42.22
68274;SHT30;55104;47.356;19.448;2023-03-23T10:07:46;19.46;43.14
68274;SHT30;55104;47.356;19.448;2023-03-23T10:30:01;20.89;39.19
68274;SHT30;55104;47.356;19.448;2023-03-23T10:33:11;21.06;38.97
68274;SHT30;55104;47.356;19.448;2023-03-23T10:36:24;21.07;39.62
68274;SHT30;55104;47.356;19.448;2023-03-23T10:39:30;21.34;38.81
68274;SHT30;55104;47.356;19.448;2023-03-23T10:42:35;21.34;38.99
68274;SHT30;55104;47.356;19.448;2023-03-23T10:45:38;21.53;38.32
68274;SHT30;55104;47.356;19.448;2023-03-23T10:48:39;21.44;38.15
68274;SHT30;55104;47.356;19.448;2023-03-23T10:51:44;21.31;38.13
68274;SHT30;55104;47.356;19.448;2023-03-23T10:55:14;21.36;38.03
68274;SHT30;55104;47.356;19.448;2023-03-23T10:58:23;21.27;39.93
68274;SHT30;55104;47.356;19.448;2023-03-23T11:01:33;21.50;38.98
68274;SHT30;55104;47.356;19.448;2023-03-23T11:04:35;21.55;38.78
68274;SHT30;55104;47.356;19.448;2023-03-23T11:07:36;21.55;37.66
68274;SHT30;55104;47.356;19.448;2023-03-23T11:10:49;21.36;38.02
68274;SHT30;55104;47.356;19.448;2023-03-23T11:14:15;21.24;39.18
68274;SHT30;55104;47.356;19.448;2023-03-23T11:17:24;21.03;38.69
68274;SHT30;55104;47.356;19.448;2023-03-23T11:20:26;20.69;39.52
68274;SHT30;55104;47.356;19.448;2023-03-23T11:23:33;20.64;38.98
68274;SHT30;55104;47.356;19.448;2023-03-23T11:26:36;20.76;39.73
68274;SHT30;55104;47.356;19.448;2023-03-23T11:32:54;20.71;38.59
68274;SHT30;55104;47.356;19.448;2023-03-23T11:35:55;20.67;39.27
68274;SHT30;55104;47.356;19.448;2023-03-23T11:38:57;20.44;39.41
68274;SHT30;55104;47.356;19.448;2023-03-23T11:42:16;20.40;40.13
68274;SHT30;55104;47.356;19.448;2023-03-23T11:45:24;20.37;40.20
68274;SHT30;55104;47.356;19.448;2023-03-23T11:48:40;20.38;39.77
68274;SHT30;55104;47.356;19.448;2023-03-23T11:51:48;20.57;39.78
68274;SHT30;55104;47.356;19.448;2023-03-23T11:54:57;20.59;39.38
68274;SHT30;55104;47.356;19.448;2023-03-23T11:58:05;20.64;40.17
68274;SHT30;55104;47.356;19.448;2023-03-23T12:04:39;20.51;39.96
68274;SHT30;55104;47.356;19.448;2023-03-23T12:24:51;20.13;40.91
68274;SHT30;55104;47.356;19.448;2023-03-23T12:28:12;19.97;40.93
68274;SHT30;55104;47.356;19.448;2023-03-23T12:35:13;19.96;41.79
68274;SHT30;55104;47.356;19.448;2023-03-23T12:44:33;20.33;41.59
68274;SHT30;55104;47.356;19.448;2023-03-23T12:47:43;20.69;41.20
68274;SHT30;55104;47.356;19.448;2023-03-23T12:51:00;20.98;39.97
68274;SHT30;55104;47.356;19.448;2023-03-23T13:01:10;20.92;40.09
68274;SHT30;55104;47.356;19.448;2023-03-23T13:04:14;20.92;39.99
68274;SHT30;55104;47.356;19.448;2023-03-23T13:07:23;20.91;39.85
68274;SHT30;55104;47.356;19.448;2023-03-23T13:10:33;21.18;39.67
68274;SHT30;55104;47.356;19.448;2023-03-23T13:13:54;21.40;39.77
68274;SHT30;55104;47.356;19.448;2023-03-23T13:20:38;21.85;38.45
68274;SHT30;55104;47.356;19.448;2023-03-23T13:23:46;22.09;38.08
68274;SHT30;55104;47.356;19.448;2023-03-23T13:26:50;21.96;38.88
68274;SHT30;55104;47.356;19.448;2023-03-23T13:29:51;22.17;38.46
68274;SHT30;55104;47.356;19.448;2023-03-23T13:33:02;22.24;38.15
68274;SHT30;55104;47.356;19.448;2023-03-23T13:36:11;22.23;38.57
68274;SHT30;55104;47.356;19.448;2023-03-23T13:39:20;22.14;38.53
68274;SHT30;55104;47.356;19.448;2023-03-23T13:42:29;21.99;37.96
68274;SHT30;55104;47.356;19.448;2023-03-23T13:45:47;21.92;38.55
68274;SHT30;55104;47.356;19.448;2023-03-23T13:52:22;21.74;39.76
68274;SHT30;55104;47.356;19.448;2023-03-23T13:55:39;21.65;39.48
68274;SHT30;55104;47.356;19.448;2023-03-23T13:58:50;21.31;40.47
68274;SHT30;55104;47.356;19.448;2023-03-23T14:01:56;21.26;39.32
68274;SHT30;55104;47.356;19.448;2023-03-23T14:05:30;21.37;39.36
68274;SHT30;55104;47.356;19.448;2023-03-23T14:11:31;21.71;39.57
68274;SHT30;55104;47.356;19.448;2023-03-23T14:14:39;21.79;39.15
68274;SHT30;55104;47.356;19.448;2023-03-23T14:17:42;21.64;39.15
68274;SHT30;55104;47.356;19.448;2023-03-23T14:20:48;21.57;38.67
68274;SHT30;55104;47.356;19.448;2023-03-23T14:23:49;21.47;39.74
68274;SHT30;55104;47.356;19.448;2023-03-23T14:26:52;21.48;39.30
68274;SHT30;55104;47.356;19.448;2023-03-23T14:30:01;21.27;38.97
68274;SHT30;55104;47.356;19.448;2023-03-23T14:33:09;21.19;39.39
68274;SHT30;55104;47.356;19.448;2023-03-23T14:36:11;21.05;39.32
68274;SHT30;55104;47.356;19.448;2023-03-23T14:42:29;20.93;39.78
68274;SHT30;55104;47.356;19.448;2023-03-23T14:45:31;20.86;39.98
68274;SHT30;55104;47.356;19.448;2023-03-23T14:48:33;20.61;40.59
68274;SHT30;55104;47.356;19.448;2023-03-23T14:51:35;20.69;39.92
68274;SHT30;55104;47.356;19.448;2023-03-23T14:54:36;20.64;39.85
68274;SHT30;55104;47.356;19.448;2023-03-23T14:57:42;20.58;39.98
68274;SHT30;55104;47.356;19.448;2023-03-23T15:00:53;20.58;39.94
68274;SHT30;55104;47.356;19.448;2023-03-23T15:07:03;20.40;40.68
68274;SHT30;55104;47.356;19.448;2023-03-23T15:10:07;20.44;40.24
68274;SHT30;55104;47.356;19.448;2023-03-23T15:13:12;20.44;40.68
68274;SHT30;55104;47.356;19.448;2023-03-23T15:16:22;20.43;41.04
68274;SHT30;55104;47.356;19.448;2023-03-23T15:19:28;20.30;40.78
68274;SHT30;55104;47.356;19.448;2023-03-23T15:22:32;20.27;41.15
68274;SHT30;55104;47.356;19.448;2023-03-23T15:25:35;20.17;41.81
68274;SHT30;55104;47.356;19.448;2023-03-23T15:28:40;20.33;41.41
68274;SHT30;55104;47.356;19.448;2023-03-23T15:31:44;20.23;41.20
68274;SHT30;55104;47.356;19.448;2023-03-23T15:34:46;20.20;41.55
68274;SHT30;55104;47.356;19.448;2023-03-23T15:37:50;20.06;41.09
68274;SHT30;55104;47.356;19.448;2023-03-23T15:40:57;19.90;41.70
68274;SHT30;55104;47.356;19.448;2023-03-23T15:44:10;19.78;42.08
68274;SHT30;55104;47.356;19.448;2023-03-23T15:47:16;19.74;42.44
68274;SHT30;55104;47.356;19.448;2023-03-23T15:50:19;19.51;42.40
68274;SHT30;55104;47.356;19.448;2023-03-23T15:53:35;19.40;43.52
68274;SHT30;55104;47.356;19.448;2023-03-23T15:56:40;19.24;43.17
68274;SHT30;55104;47.356;19.448;2023-03-23T15:59:41;19.16;43.92
68274;SHT30;55104;47.356;19.448;2023-03-23T16:02:45;19.02;44.21
68274;SHT30;55104;47.356;19.448;2023-03-23T16:05:49;19.04;44.32
68274;SHT30;55104;47.356;19.448;2023-03-23T16:08:52;19.07;44.27
68274;SHT30;55104;47.356;19.448;2023-03-23T16:11:56;19.03;44.52
68274;SHT30;55104;47.356;19.448;2023-03-23T16:14:58;18.96;45.17
68274;SHT30;55104;47.356;19.448;2023-03-23T16:18:00;18.85;44.96
68274;SHT30;55104;47.356;19.448;2023-03-23T16:21:03;18.71;45.21
68274;SHT30;55104;47.356;19.448;2023-03-23T16:24:07;18.44;45.81
68274;SHT30;55104;47.356;19.448;2023-03-23T16:27:10;18.21;46.35
68274;SHT30;55104;47.356;19.448;2023-03-23T16:30:14;17.99;46.78
68274;SHT30;55104;47.356;19.448;2023-03-23T16:33:16;17.76;47.80
68274;SHT30;55104;47.356;19.448;2023-03-23T16:36:18;17.56;48.29
68274;SHT30;55104;47.356;19.448;2023-03-23T16:39:21;17.41;48.91
68274;SHT30;55104;47.356;19.448;2023-03-23T16:42:24;17.31;49.25
68274;SHT30;55104;47.356;19.448;2023-03-23T16:45:26;17.10;50.03
68274;SHT30;55104;47.356;19.448;2023-03-23T16:48:28;16.94;50.21
68274;SHT30;55104;47.356;19.448;2023-03-23T16:51:30;16.75;50.92
68274;SHT30;55104;47.356;19.448;2023-03-23T16:54:32;16.66;50.79
68274;SHT30;55104;47.356;19.448;2023-03-23T16:57:35;16.47;51.57
68274;SHT30;55104;47.356;19.448;2023-03-23T17:00:38;16.37;51.81
68274;SHT30;55104;47.356;19.448;2023-03-23T17:03:41;16.29;51.87
68274;SHT30;55104;47.356;19.448;2023-03-23T17:06:44;16.21;51.86
68274;SHT30;55104;47.356;19.448;2023-03-23T17:09:48;16.11;52.35
68274;SHT30;55104;47.356;19.448;2023-03-23T17:12:50;16.07;52.70
68274;SHT30;55104;47.356;19.448;2023-03-23T17:15:53;15.91;53.29
68274;SHT30;55104;47.356;19.448;2023-03-23T17:18:57;15.80;53.74
68274;SHT30;55104;47.356;19.448;2023-03-23T17:21:59;15.55;54.72
68274;SHT30;55104;47.356;19.448;2023-03-23T17:25:02;15.36;55.29
68274;SHT30;55104;47.356;19.448;2023-03-23T17:28:04;15.14;56.17
68274;SHT30;55104;47.356;19.448;2023-03-23T17:31:07;15.04;56.48
68274;SHT30;55104;47.356;19.448;2023-03-23T17:34:10;14.94;56.91
68274;SHT30;55104;47.356;19.448;2023-03-23T17:37:12;14.79;57.55
68274;SHT30;55104;47.356;19.448;2023-03-23T17:40:14;14.66;58.07
68274;SHT30;55104;47.356;19.448;2023-03-23T17:43:16;14.53;58.85
68274;SHT30;55104;47.356;19.448;2023-03-23T17:46:18;14.39;58.81
68274;SHT30;55104;47.356;19.448;2023-03-23T17:49:21;14.21;58.93
68274;SHT30;55104;47.356;19.448;2023-03-23T17:52:24;14.11;59.91
68274;SHT30;55104;47.356;19.448;2023-03-23T17:55:26;13.98;60.68
68274;SHT30;55104;47.356;19.448;2023-03-23T17:58:28;13.79;61.73
68274;SHT30;55104;47.356;19.448;2023-03-23T18:01:30;13.67;62.09
68274;SHT30;55104;47.356;19.448;2023-03-23T18:04:32;13.46;63.00
68274;SHT30;55104;47.356;19.448;2023-03-23T18:07:35;13.29;63.31
68274;SHT30;55104;47.356;19.448;2023-03-23T18:10:39;13.15;63.72
68274;SHT30;55104;47.356;19.448;2023-03-23T18:13:41;13.08;63.64
68274;SHT30;55104;47.356;19.448;2023-03-23T18:16:43;12.94;64.57
68274;SHT30;55104;47.356;19.448;2023-03-23T18:19:45;12.86;64.06
68274;SHT30;55104;47.356;19.448;2023-03-23T18:22:48;12.79;64.06
68274;SHT30;55104;47.356;19.448;2023-03-23T18:25:51;12.76;64.03
68274;SHT30;55104;47.356;19.448;2023-03-23T18:28:54;12.77;63.86
68274;SHT30;55104;47.356;19.448;2023-03-23T18:31:57;12.76;64.05
68274;SHT30;55104;47.356;19.448;2023-03-23T18:34:59;12.60;65.07
68274;SHT30;55104;47.356;19.448;2023-03-23T18:38:02;12.41;65.65
68274;SHT30;55104;47.356;19.448;2023-03-23T18:41:08;12.38;65.96
68274;SHT30;55104;47.356;19.448;2023-03-23T18:44:10;12.32;65.84
68274;SHT30;55104;47.356;19.448;2023-03-23T18:47:12;12.28;66.07
68274;SHT30;55104;47.356;19.448;2023-03-23T18:50:14;12.26;65.77
68274;SHT30;55104;47.356;19.448;2023-03-23T18:53:17;12.24;65.72
68274;SHT30;55104;47.356;19.448;2023-03-23T18:56:19;12.22;65.76
68274;SHT30;55104;47.356;19.448;2023-03-23T18:59:21;12.29;66.00
68274;SHT30;55104;47.356;19.448;2023-03-23T19:02:25;12.29;65.64
68274;SHT30;55104;47.356;19.448;2023-03-23T19:05:27;12.31;66.09
68274;SHT30;55104;47.356;19.448;2023-03-23T19:08:30;12.24;66.11
68274;SHT30;55104;47.356;19.448;2023-03-23T19:11:33;12.20;66.44
68274;SHT30;55104;47.356;19.448;2023-03-23T19:14:35;12.10;66.97
68274;SHT30;55104;47.356;19.448;2023-03-23T19:17:38;12.05;67.11
68274;SHT30;55104;47.356;19.448;2023-03-23T19:20:40;11.95;66.99
68274;SHT30;55104;47.356;19.448;2023-03-23T19:24:03;11.93;67.07
68274;SHT30;55104;47.356;19.448;2023-03-23T19:27:05;11.86;67.05
68274;SHT30;55104;47.356;19.448;2023-03-23T19:30:09;11.77;67.31
68274;SHT30;55104;47.356;19.448;2023-03-23T19:33:12;11.71;67.53
68274;SHT30;55104;47.356;19.448;2023-03-23T19:36:14;11.70;67.82
68274;SHT30;55104;47.356;19.448;2023-03-23T19:39:17;11.70;67.92
68274;SHT30;55104;47.356;19.448;2023-03-23T19:42:19;11.65;68.03
68274;SHT30;55104;47.356;19.448;2023-03-23T19:45:22;11.66;68.26
68274;SHT30;55104;47.356;19.448;2023-03-23T19:48:24;11.49;68.50
68274;SHT30;55104;47.356;19.448;2023-03-23T19:51:26;11.42;69.01
68274;SHT30;55104;47.356;19.448;2023-03-23T19:54:29;11.35;68.65
68274;SHT30;55104;47.356;19.448;2023-03-23T19:57:31;11.26;69.27
68274;SHT30;55104;47.356;19.448;2023-03-23T20:00:34;11.22;69.61
68274;SHT30;55104;47.356;19.448;2023-03-23T20:03:37;11.15;69.76
68274;SHT30;55104;47.356;19.448;2023-03-23T20:06:39;11.10;70.13
68274;SHT30;55104;47.356;19.448;2023-03-23T20:09:41;11.03;70.06
68274;SHT30;55104;47.356;19.448;2023-03-23T20:12:44;11.00;70.06
68274;SHT30;55104;47.356;19.448;2023-03-23T20:15:51;10.98;70.32
68274;SHT30;55104;47.356;19.448;2023-03-23T20:18:54;11.08;70.12
68274;SHT30;55104;47.356;19.448;2023-03-23T20:22:00;11.18;69.76
68274;SHT30;55104;47.356;19.448;2023-03-23T20:25:05;11.23;69.39
68274;SHT30;55104;47.356;19.448;2023-03-23T20:28:08;11.29;69.33
68274;SHT30;55104;47.356;19.448;2023-03-23T20:31:16;11.31;69.18
68274;SHT30;55104;47.356;19.448;2023-03-23T20:34:24;11.31;69.02
68274;SHT30;55104;47.356;19.448;2023-03-23T20:37:30;11.29;69.18
68274;SHT30;55104;47.356;19.448;2023-03-23T20:40:33;11.22;69.39
68274;SHT30;55104;47.356;19.448;2023-03-23T20:43:35;11.15;69.63
68274;SHT30;55104;47.356;19.448;2023-03-23T20:46:37;11.15;69.62
68274;SHT30;55104;47.356;19.448;2023-03-23T20:49:39;11.15;69.68
68274;SHT30;55104;47.356;19.448;2023-03-23T20:52:41;11.08;69.80
68274;SHT30;55104;47.356;19.448;2023-03-23T20:55:43;11.04;70.01
68274;SHT30;55104;47.356;19.448;2023-03-23T20:58:46;10.94;70.42
68274;SHT30;55104;47.356;19.448;2023-03-23T21:01:48;10.93;70.38
68274;SHT30;55104;47.356;19.448;2023-03-23T21:04:51;10.87;70.80
68274;SHT30;55104;47.356;19.448;2023-03-23T21:07:53;10.80;71.05